Highlands Peak, California Weather observations

Data are for observation ending at time listed.
 Day   Time    Ave.   Ave.  Ave.  Vector   Max.   Stn.    Total    Solar   Ave.  
  of    of     Air    Rel.  Wind   Wind    Wind   Baro.  Precip.   Rad.    Soil  
Year   Day     Temp.  Hum.  Speed  Dir.    Gust   Pres.                    Temp. 
2015   (PST)    F      %     mph   deg.    mph     mb.     in.     W/m2     F   
------------------------------------------------------------------------------
  63   21:50   54.1    40    2.9   159      4.4   935.3    0.00       0    57.4
  63   22:00   54.1    40    3.3   174      5.5   935.4    0.00       0    57.2
  63   22:10   53.2    42    4.4   164      5.8   935.5    0.00       0    57.0
  63   22:20   52.9    45    4.8   156      7.2   935.6    0.00       0    56.5
  63   22:30   52.8    47    4.5   161      6.1   935.7    0.00       0    56.3
  63   22:40   52.6    48    2.9   128      6.1   935.7    0.00       0    56.2
  63   22:50   52.2    49    4.6   109     10.7   935.7    0.00       0    56.2
  63   23:00   52.1    49    3.5   134      6.3   935.7    0.00       0    55.8
  63   23:10   52.2    49    5.1   111      8.6   935.7    0.00       0    55.7
  63   23:20   51.8    49    7.0   115     10.4   935.6    0.00       0    55.2
  63   23:30   52.2    48    5.5   116      9.1   935.6    0.00       0    54.9
  63   23:40   52.0    49    7.1   110     11.2   935.6    0.00       0    54.8
  63   23:50   52.2    48    6.6   108      9.9   935.6    0.00       0    54.6
  64    0:00   52.7    47    5.9   109      8.4   935.6    0.00       0    54.5
  64    0:10   52.3    47    5.3    98      7.4   935.6    0.00       0    54.6
  64    0:20   52.1    48    5.5    98      7.4   935.7    0.00       0    54.6
  64    0:30   52.2    46    5.3    97      7.6   935.7    0.00       0    54.5
  64    0:40   52.2    45    4.6    97      6.6   935.7    0.00       0    54.5
  64    0:50   52.3    44    3.8    90      5.6   935.7    0.00       0    54.4
  64    1:00   52.0    45    4.4    83      6.6   935.7    0.00       0    54.4
  64    1:10   50.6    50    7.2    77     10.3   935.7    0.00       0    54.3
  64    1:20   51.5    42    5.0    74      8.2   935.7    0.00       0    54.2
  64    1:30   52.6    38    3.2    75      4.5   935.8    0.00       0    54.1
  64    1:40   53.4    36    1.8    93      3.5   935.9    0.00       0    54.0
  64    1:50   53.5    35    1.3    57      4.1   935.9    0.00       0    53.9
  64    2:00   53.3    37    2.0    88      3.5   935.8    0.00       0    53.8
  64    2:10   52.9    35    3.3    88      4.5   935.8    0.00       0    53.7
  64    2:20   53.0    34    2.7    61      4.5   935.8    0.00       0    53.5
  64    2:30   53.0    34    2.2    55      4.4   935.8    0.00       0    53.4
  64    2:40   53.4    33    0.6   333      1.6   935.7    0.00       0    53.3
  64    2:50   54.3    32    1.3   295      1.9   935.7    0.00       0    53.2
  64    3:00   53.7    33    0.1   117      0.8   935.7    0.00       0    53.1
  64    3:10   53.5    34    1.0   309      1.8   935.7    0.00       0    53.0
  64    3:20   53.0    34    3.2    61      5.0   935.7    0.00       0    52.9
  64    3:30   52.7    35    3.1    74      4.4   935.8    0.00       0    52.8
  64    3:40   52.7    34    2.7    70      3.7   935.8    0.00       0    52.7
  64    3:50   52.9    33    2.7    64      3.7   935.8    0.00       0    52.6
  64    4:00   53.2    34    2.4   309      4.1   935.8    0.00       0    52.5
  64    4:10   52.9    37    3.1   297      4.4   935.9    0.00       0    52.4
  64    4:20   53.2    36    2.4   307      3.4   935.9    0.00       0    52.3
  64    4:30   52.8    36    3.7   357      5.6   936.0    0.00       0    52.2
  64    4:40   52.7    36    1.8   344      3.6   936.0    0.00       0    52.1
  64    4:50   53.0    35    1.2    84      2.1   936.1    0.00       0    52.0
  64    5:00   53.2    35    1.6    88      2.5   936.2    0.00       0    51.9
  64    5:10   53.2    34    2.9    80      5.1   936.3    0.00       0    51.9
  64    5:20   52.7    33    4.3   100      5.2   936.4    0.00       0    51.8
  64    5:30   52.5    33    4.1    78      6.3   936.5    0.00       0    51.7
  64    5:40   53.0    32    3.1    77      6.0   936.7    0.00       0    51.6
  64    5:50   52.9    32    3.1   101      4.7   936.8    0.00       0    51.5
  64    6:00   52.7    31    3.2   109      6.5   936.8    0.00       0    51.4
  64    6:10   51.7    32    4.1   106      6.1   936.9    0.00       0    51.3
  64    6:20   52.9    30    2.8   124      3.7   937.0    0.00       0    51.1
  64    6:30   53.5    29    1.7   122      2.3   937.1    0.00       2    51.1
  64    6:40   53.9    29    2.1    98      3.3   937.2    0.00       7    51.0
  64    6:50   53.3    30    3.6    96      6.7   937.3    0.00      12    50.9
  64    7:00   53.5    29    2.0   116      3.9   937.4    0.00      17    50.9
  64    7:10   54.2    27    2.7    92      4.7   937.5    0.00      21    50.8
  64    7:20   54.1    27    2.0   139      3.4   937.7    0.00      24    50.7
  64    7:30   55.1    27    1.5   134      2.2   937.8    0.00     166    50.6
  64    7:40   56.6    24    1.8    84      5.0   937.9    0.00     231    50.5
  64    7:50   56.8    25    2.4   126      4.4   938.1    0.00     271    50.4
  64    8:00   55.6    29    2.8   277      4.2   938.3    0.00     310    50.3
  64    8:10   55.4    31    2.4   292      3.0   938.6    0.00     349    50.3
  64    8:20   56.3    30    0.9   300      1.6   938.7    0.00     388    50.2
  64    8:30   57.4    28    0.8   281      2.4   938.8    0.00     426    50.2
  64    8:40   58.8    27    1.0   171      4.8   938.8    0.00     463    50.2
  64    8:50   58.8    28    1.7   215      4.0   938.9    0.00     499    50.2
  64    9:00   58.5    28    3.4   195      6.9   939.0    0.00     533    50.3
  64    9:10   58.5    28    2.1   202      5.8   939.1    0.00     566    50.3
  64    9:20   59.3    29    3.0   182      6.1   939.2    0.00     598    50.4
  64    9:30   59.7    27    4.4   180      8.2   939.2    0.00     629    50.5
  64    9:40   60.1    29    3.6   184      8.3   939.2    0.00     658    50.6
  64    9:50   60.8    29    4.1   182     12.1   939.3    0.00     685    50.8
  64   10:00   61.2    24    6.8   142     11.8   939.3    0.00     711    51.0
  64   10:10   61.4    25    4.7   167     10.7   939.4    0.00     735    51.2
  64   10:20   61.6    26    5.4   184      9.6   939.3    0.00     757    51.5
  64   10:30   60.7    30    5.4   219     12.8   939.3    0.00     778    51.7
  64   10:40   59.9    34    4.2   262      8.3   939.3    0.00     793    52.0
  64   10:50   60.0    32    4.0   234     11.6   939.2    0.00     811    52.4
  64   11:00   61.0    29    3.8   212     10.1   939.2    0.00     826    52.7
  64   11:10   61.1    31    3.4   235     10.7   939.2    0.00     839    53.1
  64   11:20   61.9    31    4.9   225      9.8   939.2    0.00     850    53.4
  64   11:30   61.3    30    4.6   217     11.6   939.2    0.00     859    53.7
  64   11:40   61.6    33    4.4   248      8.8   939.1    0.00     864    54.1
  64   11:50   60.7    34    4.8   256      8.9   939.0    0.00     868    54.5
  64   12:00   60.9    33    3.2   229      6.4   939.0    0.00     872    54.9
  64   12:10   61.3    33    3.2   256      7.2   938.9    0.00     873    55.2
  64   12:20   60.5    35    3.6   274      7.1   938.8    0.00     873    55.6
  64   12:30   60.1    34    4.4   272      6.7   938.8    0.00     870    56.0
  64   12:40   60.6    34    3.2   258      6.9   938.7    0.00     865    56.4
  64   12:50   61.2    33    3.5   251      6.6   938.6    0.00     860    56.8
  64   13:00   61.2    34    4.9   272      8.2   938.5    0.00     859    57.2
  64   13:10   60.7    35    4.2   268      7.9   938.4    0.00     853    57.5
  64   13:20   61.3    34    3.9   258      6.9   938.3    0.00     831    57.8
  64   13:30   61.6    34    3.0   241      5.9   938.2    0.00     813    58.2
  64   13:40   62.2    33    3.9   266      7.0   938.1    0.00     797    58.6
  64   13:50   62.5    34    4.1   248      7.2   938.0    0.00     782    59.0
  64   14:00   61.9    33    4.5   256      7.3   938.0    0.00     764    59.6
  64   14:10   62.2    35    5.3   274      8.6   937.9    0.00     744    60.0
  64   14:20   62.3    35    4.6   257      8.1   937.9    0.00     722    60.4
  64   14:30   62.0    35    4.4   268      8.0   937.8    0.00     699    60.8
  64   14:40   62.2    36    5.4   268      8.3   937.8    0.00     673    61.2
  64   14:50   62.0    35    3.8   253      7.4   937.8    0.00     648    61.6
  64   15:00   62.7    35    4.6   261      8.8   937.7    0.00     607    61.9
  64   15:10   62.4    35    4.7   251      7.1   937.6    0.00     597    62.3
  64   15:20   62.3    35    4.4   262      7.8   937.6    0.00     562    62.6
  64   15:30   62.0    34    3.8   274      7.4   937.5    0.00     528    62.8
  64   15:40   62.0    34    4.0   259      6.4   937.6    0.00     494    63.1
  64   15:50   61.4    34    4.4   261      7.5   937.5    0.00     460    63.3
  64   16:00   61.2    35    3.4   280      6.4   937.4    0.00     425    63.5
  64   16:10   61.3    34    2.6   253      6.1   937.4    0.00     389    63.6
  64   16:20   61.1    35    3.5   278      5.6   937.3    0.00     353    63.7
  64   16:30   61.1    36    3.1   274      5.1   937.3    0.00     316    63.8
  64   16:40   60.6    36    3.8   277      6.5   937.4    0.00     279    64.0
  64   16:50   60.9    37    3.1   281      6.0   937.4    0.00     243    64.1
  64   17:00   60.3    37    3.3   272      4.9   937.4    0.00     208    64.1
  64   17:10   60.2    37    3.4   272      5.2   937.4    0.00     174    64.2
  64   17:20   59.3    37    3.8   275      5.6   937.4    0.00     142    64.2
  64   17:30   58.7    37    2.7   284      4.7   937.5    0.00     112    64.2
  64   17:40   58.8    36    1.7   290      3.1   937.5    0.00      82    64.2
  64   17:50   57.5    38    3.5     5      4.5   937.4    0.00      54    64.1
  64   18:00   56.2    39    4.1   342      4.7   937.4    0.00      29    64.1
  64   18:10   55.0    43    4.2   316      4.9   937.4    0.00      11    63.9
  64   18:20   53.6    44    4.3   317      5.2   937.4    0.00       2    63.8
  64   18:30   53.5    34    3.6   305      4.7   937.4    0.00       0    63.7
  64   18:40   54.8    27    4.1   299      5.3   937.4    0.00       0    63.6
  64   18:50   55.1    30    3.9   298      6.1   937.4    0.00       0    63.4
  64   19:00   55.7    31    3.1   296      4.5   937.4    0.00       0    63.3
  64   19:10   55.7    30    3.2   288      6.9   937.4    0.00       0    63.1
  64   19:20   55.4    30    5.3   295      8.9   937.4    0.00       0    62.9
  64   19:30   54.8    29    6.0   292      8.3   937.4    0.00       0    62.8
  64   19:40   55.2    29    5.0   287      7.5   937.5    0.00       0    62.6
  64   19:50   55.8    28    4.7   298      6.4   937.5    0.00       0    62.4
  64   20:00   55.7    30    3.8   275      6.0   937.6    0.00       0    62.2
  64   20:10   55.8    31    3.3   283      5.2   937.6    0.00       0    62.0
  64   20:20   55.8    32    3.1   296      6.0   937.6    0.00       0    61.8
  64   20:30   55.9    32    1.3   243      2.8   937.6    0.00       0    61.6
  64   20:40   56.9    32    2.9   199      6.6   937.6    0.00       0    61.4
  64   20:50   57.0    32    3.3   180      6.3   937.7    0.00       0    61.1
  64   21:00   57.1    32    2.7   168      5.5   937.8    0.00       0    61.0
  64   21:10   56.2    32    3.2   178      5.0   937.8    0.00       0    60.8
  64   21:20   56.6    32    1.1   194      3.9   937.8    0.00       0    60.6
  64   21:30   57.3    32    1.8   212      2.7   937.8    0.00       0    60.4
  64   21:40   57.4    32    1.7   223      2.6   937.9    0.00       0    60.2

Return to Highlands Peak graphs page.


Western Regional Climate Center,wrcc@dri.edu